sensor_id;sensor_type;location;lat;lon;timestamp;P1;durP1;ratioP1;P2;durP2;ratioP2
8490;SDS011;4282;49.986;7.938;2023-03-16T00:00:32;4.07;;;2.73;;
8490;SDS011;4282;49.986;7.938;2023-03-16T00:03:01;5.83;;;3.33;;
8490;SDS011;4282;49.986;7.938;2023-03-16T00:05:29;4.20;;;2.57;;
8490;SDS011;4282;49.986;7.938;2023-03-16T00:07:57;5.93;;;2.70;;
8490;SDS011;4282;49.986;7.938;2023-03-16T00:10:25;4.97;;;2.30;;
8490;SDS011;4282;49.986;7.938;2023-03-16T00:12:54;5.07;;;2.70;;
8490;SDS011;4282;49.986;7.938;2023-03-16T00:15:24;4.80;;;3.00;;
8490;SDS011;4282;49.986;7.938;2023-03-16T00:17:53;5.03;;;2.63;;
8490;SDS011;4282;49.986;7.938;2023-03-16T00:20:21;3.43;;;2.10;;
8490;SDS011;4282;49.986;7.938;2023-03-16T00:22:49;4.93;;;2.87;;
8490;SDS011;4282;49.986;7.938;2023-03-16T00:25:18;5.13;;;2.50;;
8490;SDS011;4282;49.986;7.938;2023-03-16T00:27:46;3.77;;;2.67;;
8490;SDS011;4282;49.986;7.938;2023-03-16T00:30:15;5.43;;;2.67;;
8490;SDS011;4282;49.986;7.938;2023-03-16T00:32:45;6.13;;;3.37;;
8490;SDS011;4282;49.986;7.938;2023-03-16T00:35:14;5.60;;;3.27;;
8490;SDS011;4282;49.986;7.938;2023-03-16T00:37:42;4.30;;;2.90;;
8490;SDS011;4282;49.986;7.938;2023-03-16T00:40:10;5.37;;;3.30;;
8490;SDS011;4282;49.986;7.938;2023-03-16T00:42:39;7.20;;;3.90;;
8490;SDS011;4282;49.986;7.938;2023-03-16T00:45:08;4.03;;;2.97;;
8490;SDS011;4282;49.986;7.938;2023-03-16T00:47:37;6.77;;;3.60;;
8490;SDS011;4282;49.986;7.938;2023-03-16T00:50:09;6.03;;;3.50;;
8490;SDS011;4282;49.986;7.938;2023-03-16T00:52:38;6.63;;;3.73;;
8490;SDS011;4282;49.986;7.938;2023-03-16T00:55:06;7.43;;;3.63;;
8490;SDS011;4282;49.986;7.938;2023-03-16T00:57:35;5.53;;;3.47;;
8490;SDS011;4282;49.986;7.938;2023-03-16T01:00:04;4.43;;;3.30;;
8490;SDS011;4282;49.986;7.938;2023-03-16T01:02:40;5.93;;;3.43;;
8490;SDS011;4282;49.986;7.938;2023-03-16T01:05:12;5.97;;;3.70;;
8490;SDS011;4282;49.986;7.938;2023-03-16T01:07:41;6.70;;;3.87;;
8490;SDS011;4282;49.986;7.938;2023-03-16T01:10:10;6.87;;;3.63;;
8490;SDS011;4282;49.986;7.938;2023-03-16T01:12:39;6.80;;;3.63;;
8490;SDS011;4282;49.986;7.938;2023-03-16T01:15:09;5.23;;;3.43;;
8490;SDS011;4282;49.986;7.938;2023-03-16T01:17:37;5.53;;;3.93;;
8490;SDS011;4282;49.986;7.938;2023-03-16T01:20:06;4.33;;;3.30;;
8490;SDS011;4282;49.986;7.938;2023-03-16T01:22:41;4.97;;;3.47;;
8490;SDS011;4282;49.986;7.938;2023-03-16T01:25:10;5.13;;;3.90;;
8490;SDS011;4282;49.986;7.938;2023-03-16T01:27:39;4.47;;;2.90;;
8490;SDS011;4282;49.986;7.938;2023-03-16T01:30:08;7.23;;;3.40;;
8490;SDS011;4282;49.986;7.938;2023-03-16T01:32:38;5.30;;;3.60;;
8490;SDS011;4282;49.986;7.938;2023-03-16T01:35:07;4.23;;;3.17;;
8490;SDS011;4282;49.986;7.938;2023-03-16T01:37:36;4.83;;;2.80;;
8490;SDS011;4282;49.986;7.938;2023-03-16T01:40:07;3.67;;;2.47;;
8490;SDS011;4282;49.986;7.938;2023-03-16T01:42:40;3.50;;;2.57;;
8490;SDS011;4282;49.986;7.938;2023-03-16T01:48:10;4.57;;;2.47;;
8490;SDS011;4282;49.986;7.938;2023-03-16T01:50:38;3.43;;;2.63;;
8490;SDS011;4282;49.986;7.938;2023-03-16T01:53:07;4.57;;;2.87;;
8490;SDS011;4282;49.986;7.938;2023-03-16T01:55:38;4.77;;;2.63;;
8490;SDS011;4282;49.986;7.938;2023-03-16T01:58:07;4.30;;;2.50;;
8490;SDS011;4282;49.986;7.938;2023-03-16T02:00:38;7.73;;;3.20;;
8490;SDS011;4282;49.986;7.938;2023-03-16T02:03:10;5.17;;;3.07;;
8490;SDS011;4282;49.986;7.938;2023-03-16T02:05:41;5.23;;;3.00;;
8490;SDS011;4282;49.986;7.938;2023-03-16T02:08:10;6.53;;;3.07;;
8490;SDS011;4282;49.986;7.938;2023-03-16T02:10:41;7.00;;;3.10;;
8490;SDS011;4282;49.986;7.938;2023-03-16T02:13:10;4.17;;;3.10;;
8490;SDS011;4282;49.986;7.938;2023-03-16T02:15:39;4.40;;;2.60;;
8490;SDS011;4282;49.986;7.938;2023-03-16T02:18:07;5.93;;;2.97;;
8490;SDS011;4282;49.986;7.938;2023-03-16T02:20:42;6.57;;;3.20;;
8490;SDS011;4282;49.986;7.938;2023-03-16T02:23:15;4.23;;;2.70;;
8490;SDS011;4282;49.986;7.938;2023-03-16T02:25:49;4.70;;;2.60;;
8490;SDS011;4282;49.986;7.938;2023-03-16T02:28:21;6.23;;;2.80;;
8490;SDS011;4282;49.986;7.938;2023-03-16T02:30:56;5.70;;;3.33;;
8490;SDS011;4282;49.986;7.938;2023-03-16T02:33:24;4.87;;;2.63;;
8490;SDS011;4282;49.986;7.938;2023-03-16T02:35:52;4.97;;;2.90;;
8490;SDS011;4282;49.986;7.938;2023-03-16T02:38:21;5.33;;;2.67;;
8490;SDS011;4282;49.986;7.938;2023-03-16T02:40:53;3.37;;;2.60;;
8490;SDS011;4282;49.986;7.938;2023-03-16T02:43:23;5.77;;;3.30;;
8490;SDS011;4282;49.986;7.938;2023-03-16T02:46:00;3.60;;;2.90;;
8490;SDS011;4282;49.986;7.938;2023-03-16T02:48:30;6.00;;;3.50;;
8490;SDS011;4282;49.986;7.938;2023-03-16T02:51:02;4.60;;;3.07;;
8490;SDS011;4282;49.986;7.938;2023-03-16T02:53:31;5.73;;;3.73;;
8490;SDS011;4282;49.986;7.938;2023-03-16T02:55:59;4.77;;;3.23;;
8490;SDS011;4282;49.986;7.938;2023-03-16T02:58:28;5.80;;;3.30;;
8490;SDS011;4282;49.986;7.938;2023-03-16T03:00:56;6.73;;;3.33;;
8490;SDS011;4282;49.986;7.938;2023-03-16T03:03:28;5.97;;;3.20;;
8490;SDS011;4282;49.986;7.938;2023-03-16T03:05:58;5.13;;;2.83;;
8490;SDS011;4282;49.986;7.938;2023-03-16T03:08:26;5.23;;;3.30;;
8490;SDS011;4282;49.986;7.938;2023-03-16T03:10:56;5.40;;;3.43;;
8490;SDS011;4282;49.986;7.938;2023-03-16T03:13:25;6.90;;;3.67;;
8490;SDS011;4282;49.986;7.938;2023-03-16T03:15:53;7.33;;;4.30;;
8490;SDS011;4282;49.986;7.938;2023-03-16T03:18:21;7.23;;;5.30;;
8490;SDS011;4282;49.986;7.938;2023-03-16T03:20:52;7.40;;;5.67;;
8490;SDS011;4282;49.986;7.938;2023-03-16T03:23:21;8.57;;;5.43;;
8490;SDS011;4282;49.986;7.938;2023-03-16T03:25:49;10.43;;;5.93;;
8490;SDS011;4282;49.986;7.938;2023-03-16T03:28:18;11.00;;;6.27;;
8490;SDS011;4282;49.986;7.938;2023-03-16T03:30:46;8.63;;;5.47;;
8490;SDS011;4282;49.986;7.938;2023-03-16T03:33:15;8.33;;;5.77;;
8490;SDS011;4282;49.986;7.938;2023-03-16T03:35:43;9.03;;;6.03;;
8490;SDS011;4282;49.986;7.938;2023-03-16T03:38:14;10.63;;;6.07;;
8490;SDS011;4282;49.986;7.938;2023-03-16T03:40:42;9.40;;;5.93;;
8490;SDS011;4282;49.986;7.938;2023-03-16T03:43:11;10.00;;;5.93;;
8490;SDS011;4282;49.986;7.938;2023-03-16T03:45:39;11.60;;;5.77;;
8490;SDS011;4282;49.986;7.938;2023-03-16T03:48:07;7.90;;;5.27;;
8490;SDS011;4282;49.986;7.938;2023-03-16T03:50:35;13.07;;;6.63;;
8490;SDS011;4282;49.986;7.938;2023-03-16T03:53:04;9.37;;;5.80;;
8490;SDS011;4282;49.986;7.938;2023-03-16T03:55:35;9.70;;;6.03;;
8490;SDS011;4282;49.986;7.938;2023-03-16T03:58:04;8.13;;;5.73;;
8490;SDS011;4282;49.986;7.938;2023-03-16T04:00:32;8.53;;;6.40;;
8490;SDS011;4282;49.986;7.938;2023-03-16T04:03:00;11.13;;;6.70;;
8490;SDS011;4282;49.986;7.938;2023-03-16T04:05:29;8.90;;;5.77;;
8490;SDS011;4282;49.986;7.938;2023-03-16T04:07:57;7.50;;;5.73;;
8490;SDS011;4282;49.986;7.938;2023-03-16T04:10:26;10.07;;;6.27;;
8490;SDS011;4282;49.986;7.938;2023-03-16T04:12:58;7.77;;;5.83;;
8490;SDS011;4282;49.986;7.938;2023-03-16T04:15:26;8.77;;;6.33;;
8490;SDS011;4282;49.986;7.938;2023-03-16T04:17:56;8.80;;;6.30;;
8490;SDS011;4282;49.986;7.938;2023-03-16T04:20:25;8.23;;;6.70;;
8490;SDS011;4282;49.986;7.938;2023-03-16T04:22:54;9.00;;;6.57;;
8490;SDS011;4282;49.986;7.938;2023-03-16T04:25:23;9.27;;;6.63;;
8490;SDS011;4282;49.986;7.938;2023-03-16T04:27:54;12.07;;;6.83;;
8490;SDS011;4282;49.986;7.938;2023-03-16T04:30:25;11.97;;;7.23;;
8490;SDS011;4282;49.986;7.938;2023-03-16T04:32:54;10.53;;;5.70;;
8490;SDS011;4282;49.986;7.938;2023-03-16T04:35:23;8.47;;;6.10;;
8490;SDS011;4282;49.986;7.938;2023-03-16T04:37:51;10.37;;;6.03;;
8490;SDS011;4282;49.986;7.938;2023-03-16T04:40:19;10.23;;;6.57;;
8490;SDS011;4282;49.986;7.938;2023-03-16T04:42:48;9.27;;;6.33;;
8490;SDS011;4282;49.986;7.938;2023-03-16T04:45:16;10.33;;;6.63;;
8490;SDS011;4282;49.986;7.938;2023-03-16T04:47:47;8.33;;;5.80;;
8490;SDS011;4282;49.986;7.938;2023-03-16T04:50:16;8.47;;;5.93;;
8490;SDS011;4282;49.986;7.938;2023-03-16T04:52:44;8.97;;;6.67;;
8490;SDS011;4282;49.986;7.938;2023-03-16T04:55:12;9.87;;;6.37;;
8490;SDS011;4282;49.986;7.938;2023-03-16T04:57:41;11.67;;;6.43;;
8490;SDS011;4282;49.986;7.938;2023-03-16T05:00:10;12.47;;;7.10;;
8490;SDS011;4282;49.986;7.938;2023-03-16T05:02:43;9.97;;;6.43;;
8490;SDS011;4282;49.986;7.938;2023-03-16T05:05:14;13.10;;;6.50;;
8490;SDS011;4282;49.986;7.938;2023-03-16T05:07:43;10.10;;;6.70;;
8490;SDS011;4282;49.986;7.938;2023-03-16T05:10:12;11.53;;;6.80;;
8490;SDS011;4282;49.986;7.938;2023-03-16T05:12:43;10.33;;;5.77;;
8490;SDS011;4282;49.986;7.938;2023-03-16T05:15:11;10.70;;;6.93;;
8490;SDS011;4282;49.986;7.938;2023-03-16T05:17:39;11.70;;;6.67;;
8490;SDS011;4282;49.986;7.938;2023-03-16T05:20:09;12.33;;;6.67;;
8490;SDS011;4282;49.986;7.938;2023-03-16T05:22:42;11.47;;;6.93;;
8490;SDS011;4282;49.986;7.938;2023-03-16T05:25:12;12.70;;;6.90;;
8490;SDS011;4282;49.986;7.938;2023-03-16T05:27:41;13.13;;;6.80;;
8490;SDS011;4282;49.986;7.938;2023-03-16T05:30:10;9.67;;;6.60;;
8490;SDS011;4282;49.986;7.938;2023-03-16T05:32:40;11.57;;;5.90;;
8490;SDS011;4282;49.986;7.938;2023-03-16T05:35:08;10.17;;;5.83;;
8490;SDS011;4282;49.986;7.938;2023-03-16T05:37:37;9.30;;;6.03;;
8490;SDS011;4282;49.986;7.938;2023-03-16T05:40:09;9.40;;;6.40;;
8490;SDS011;4282;49.986;7.938;2023-03-16T05:42:41;10.57;;;5.37;;
8490;SDS011;4282;49.986;7.938;2023-03-16T05:45:10;8.30;;;5.53;;
8490;SDS011;4282;49.986;7.938;2023-03-16T05:47:39;8.40;;;5.70;;
8490;SDS011;4282;49.986;7.938;2023-03-16T05:50:08;10.97;;;6.07;;
8490;SDS011;4282;49.986;7.938;2023-03-16T05:52:38;8.83;;;5.43;;
8490;SDS011;4282;49.986;7.938;2023-03-16T05:55:10;13.17;;;6.53;;
8490;SDS011;4282;49.986;7.938;2023-03-16T05:57:42;10.93;;;6.23;;
8490;SDS011;4282;49.986;7.938;2023-03-16T06:00:12;12.43;;;6.33;;
8490;SDS011;4282;49.986;7.938;2023-03-16T06:02:42;10.10;;;5.50;;
8490;SDS011;4282;49.986;7.938;2023-03-16T06:05:11;11.53;;;5.83;;
8490;SDS011;4282;49.986;7.938;2023-03-16T06:07:40;10.30;;;6.40;;
8490;SDS011;4282;49.986;7.938;2023-03-16T06:10:11;10.77;;;6.23;;
8490;SDS011;4282;49.986;7.938;2023-03-16T06:12:40;10.17;;;6.13;;
8490;SDS011;4282;49.986;7.938;2023-03-16T06:15:09;10.63;;;6.57;;
8490;SDS011;4282;49.986;7.938;2023-03-16T06:17:38;11.73;;;5.47;;
8490;SDS011;4282;49.986;7.938;2023-03-16T06:20:07;11.97;;;6.40;;
8490;SDS011;4282;49.986;7.938;2023-03-16T06:22:37;12.00;;;6.13;;
8490;SDS011;4282;49.986;7.938;2023-03-16T06:25:06;12.40;;;6.47;;
8490;SDS011;4282;49.986;7.938;2023-03-16T06:27:38;10.07;;;6.43;;
8490;SDS011;4282;49.986;7.938;2023-03-16T06:30:08;9.07;;;6.27;;
8490;SDS011;4282;49.986;7.938;2023-03-16T06:32:38;11.30;;;6.90;;
8490;SDS011;4282;49.986;7.938;2023-03-16T06:35:09;9.37;;;5.97;;
8490;SDS011;4282;49.986;7.938;2023-03-16T06:37:37;11.70;;;6.53;;
8490;SDS011;4282;49.986;7.938;2023-03-16T06:40:06;14.57;;;7.30;;
8490;SDS011;4282;49.986;7.938;2023-03-16T06:42:35;12.10;;;7.53;;
8490;SDS011;4282;49.986;7.938;2023-03-16T06:45:07;13.67;;;6.87;;
8490;SDS011;4282;49.986;7.938;2023-03-16T06:47:37;8.33;;;6.00;;
8490;SDS011;4282;49.986;7.938;2023-03-16T06:50:05;10.50;;;6.13;;
8490;SDS011;4282;49.986;7.938;2023-03-16T06:52:34;8.43;;;5.87;;
8490;SDS011;4282;49.986;7.938;2023-03-16T06:55:03;11.40;;;6.90;;
8490;SDS011;4282;49.986;7.938;2023-03-16T06:57:32;11.00;;;6.93;;
8490;SDS011;4282;49.986;7.938;2023-03-16T07:00:00;9.83;;;6.00;;
8490;SDS011;4282;49.986;7.938;2023-03-16T07:02:31;12.63;;;7.10;;
8490;SDS011;4282;49.986;7.938;2023-03-16T07:04:59;10.17;;;6.07;;
8490;SDS011;4282;49.986;7.938;2023-03-16T07:07:28;10.40;;;6.97;;
8490;SDS011;4282;49.986;7.938;2023-03-16T07:09:56;9.60;;;6.77;;
8490;SDS011;4282;49.986;7.938;2023-03-16T07:12:25;11.43;;;7.13;;
8490;SDS011;4282;49.986;7.938;2023-03-16T07:14:54;15.43;;;8.43;;
8490;SDS011;4282;49.986;7.938;2023-03-16T07:17:22;11.47;;;6.83;;
8490;SDS011;4282;49.986;7.938;2023-03-16T07:19:53;10.47;;;7.27;;
8490;SDS011;4282;49.986;7.938;2023-03-16T07:22:21;10.67;;;7.43;;
8490;SDS011;4282;49.986;7.938;2023-03-16T07:24:49;9.80;;;7.20;;
8490;SDS011;4282;49.986;7.938;2023-03-16T07:27:21;10.37;;;7.33;;
8490;SDS011;4282;49.986;7.938;2023-03-16T07:29:50;11.73;;;6.77;;
8490;SDS011;4282;49.986;7.938;2023-03-16T07:32:18;10.80;;;7.13;;
8490;SDS011;4282;49.986;7.938;2023-03-16T07:34:47;9.00;;;6.50;;
8490;SDS011;4282;49.986;7.938;2023-03-16T07:37:18;4.70;;;3.30;;
8490;SDS011;4282;49.986;7.938;2023-03-16T07:39:46;12.50;;;7.07;;
8490;SDS011;4282;49.986;7.938;2023-03-16T07:42:14;7.80;;;6.33;;
8490;SDS011;4282;49.986;7.938;2023-03-16T07:44:43;10.93;;;4.70;;
8490;SDS011;4282;49.986;7.938;2023-03-16T07:47:12;10.53;;;6.27;;
8490;SDS011;4282;49.986;7.938;2023-03-16T07:49:40;10.90;;;6.87;;
8490;SDS011;4282;49.986;7.938;2023-03-16T07:52:09;9.93;;;6.27;;
8490;SDS011;4282;49.986;7.938;2023-03-16T07:54:40;11.00;;;5.80;;
8490;SDS011;4282;49.986;7.938;2023-03-16T07:57:09;10.67;;;6.27;;
8490;SDS011;4282;49.986;7.938;2023-03-16T07:59:37;10.97;;;5.80;;
8490;SDS011;4282;49.986;7.938;2023-03-16T08:02:05;10.83;;;5.53;;
8490;SDS011;4282;49.986;7.938;2023-03-16T08:04:36;9.13;;;6.20;;
8490;SDS011;4282;49.986;7.938;2023-03-16T08:07:06;7.97;;;5.67;;
8490;SDS011;4282;49.986;7.938;2023-03-16T08:09:34;10.20;;;5.87;;
8490;SDS011;4282;49.986;7.938;2023-03-16T08:12:06;7.03;;;4.33;;
8490;SDS011;4282;49.986;7.938;2023-03-16T08:14:36;9.40;;;6.67;;
8490;SDS011;4282;49.986;7.938;2023-03-16T08:17:13;7.73;;;4.77;;
8490;SDS011;4282;49.986;7.938;2023-03-16T08:19:41;10.90;;;5.67;;
8490;SDS011;4282;49.986;7.938;2023-03-16T08:22:10;5.70;;;4.23;;
8490;SDS011;4282;49.986;7.938;2023-03-16T08:24:39;8.33;;;6.20;;
8490;SDS011;4282;49.986;7.938;2023-03-16T08:27:10;7.70;;;5.17;;
8490;SDS011;4282;49.986;7.938;2023-03-16T08:29:40;6.07;;;3.30;;
8490;SDS011;4282;49.986;7.938;2023-03-16T08:32:08;11.33;;;7.00;;
8490;SDS011;4282;49.986;7.938;2023-03-16T08:34:36;9.90;;;4.73;;
8490;SDS011;4282;49.986;7.938;2023-03-16T08:37:05;8.00;;;6.27;;
8490;SDS011;4282;49.986;7.938;2023-03-16T08:39:33;8.20;;;5.60;;
8490;SDS011;4282;49.986;7.938;2023-03-16T08:42:02;11.20;;;6.57;;
8490;SDS011;4282;49.986;7.938;2023-03-16T08:44:34;10.40;;;5.73;;
8490;SDS011;4282;49.986;7.938;2023-03-16T08:47:03;9.10;;;6.40;;
8490;SDS011;4282;49.986;7.938;2023-03-16T08:49:31;7.03;;;5.00;;
8490;SDS011;4282;49.986;7.938;2023-03-16T08:52:00;9.73;;;6.40;;
8490;SDS011;4282;49.986;7.938;2023-03-16T08:54:29;10.23;;;7.07;;
8490;SDS011;4282;49.986;7.938;2023-03-16T08:56:58;9.70;;;7.43;;
8490;SDS011;4282;49.986;7.938;2023-03-16T08:59:26;11.27;;;7.53;;
8490;SDS011;4282;49.986;7.938;2023-03-16T09:01:57;7.00;;;5.17;;
8490;SDS011;4282;49.986;7.938;2023-03-16T09:04:26;9.53;;;6.57;;
8490;SDS011;4282;49.986;7.938;2023-03-16T09:06:55;10.27;;;7.43;;
8490;SDS011;4282;49.986;7.938;2023-03-16T09:09:23;9.83;;;7.13;;
8490;SDS011;4282;49.986;7.938;2023-03-16T09:11:51;10.13;;;6.83;;
8490;SDS011;4282;49.986;7.938;2023-03-16T09:14:19;9.30;;;7.13;;
8490;SDS011;4282;49.986;7.938;2023-03-16T09:16:48;12.63;;;8.50;;
8490;SDS011;4282;49.986;7.938;2023-03-16T09:19:19;7.43;;;5.83;;
8490;SDS011;4282;49.986;7.938;2023-03-16T09:21:49;7.80;;;4.70;;
8490;SDS011;4282;49.986;7.938;2023-03-16T09:24:17;11.53;;;6.90;;
8490;SDS011;4282;49.986;7.938;2023-03-16T09:26:46;11.30;;;9.97;;
8490;SDS011;4282;49.986;7.938;2023-03-16T09:29:14;11.47;;;7.13;;
8490;SDS011;4282;49.986;7.938;2023-03-16T09:31:43;9.60;;;7.37;;
8490;SDS011;4282;49.986;7.938;2023-03-16T09:34:11;10.37;;;6.87;;
8490;SDS011;4282;49.986;7.938;2023-03-16T09:36:42;7.97;;;5.53;;
8490;SDS011;4282;49.986;7.938;2023-03-16T09:39:10;9.83;;;6.70;;
8490;SDS011;4282;49.986;7.938;2023-03-16T09:41:41;10.20;;;7.63;;
8490;SDS011;4282;49.986;7.938;2023-03-16T09:44:25;7.90;;;6.47;;
8490;SDS011;4282;49.986;7.938;2023-03-16T09:46:58;8.40;;;5.30;;
8490;SDS011;4282;49.986;7.938;2023-03-16T09:49:30;10.90;;;6.47;;
8490;SDS011;4282;49.986;7.938;2023-03-16T09:52:07;10.80;;;6.13;;
8490;SDS011;4282;49.986;7.938;2023-03-16T09:54:44;9.80;;;5.20;;
8490;SDS011;4282;49.986;7.938;2023-03-16T09:57:16;13.20;;;8.37;;
8490;SDS011;4282;49.986;7.938;2023-03-16T09:59:51;9.20;;;7.37;;
8490;SDS011;4282;49.986;7.938;2023-03-16T10:05:21;10.67;;;8.17;;
8490;SDS011;4282;49.986;7.938;2023-03-16T10:07:55;10.87;;;7.37;;
8490;SDS011;4282;49.986;7.938;2023-03-16T10:10:34;9.70;;;6.27;;
8490;SDS011;4282;49.986;7.938;2023-03-16T10:13:26;11.27;;;6.93;;
8490;SDS011;4282;49.986;7.938;2023-03-16T10:15:57;9.43;;;7.63;;
8490;SDS011;4282;49.986;7.938;2023-03-16T10:18:27;11.60;;;8.47;;
8490;SDS011;4282;49.986;7.938;2023-03-16T10:20:57;13.07;;;9.00;;
8490;SDS011;4282;49.986;7.938;2023-03-16T10:23:28;11.00;;;6.37;;
8490;SDS011;4282;49.986;7.938;2023-03-16T10:25:59;8.73;;;6.33;;
8490;SDS011;4282;49.986;7.938;2023-03-16T10:28:32;10.27;;;8.33;;
8490;SDS011;4282;49.986;7.938;2023-03-16T10:31:01;8.73;;;5.40;;
8490;SDS011;4282;49.986;7.938;2023-03-16T10:33:31;11.27;;;7.97;;
8490;SDS011;4282;49.986;7.938;2023-03-16T10:36:01;10.27;;;8.17;;
8490;SDS011;4282;49.986;7.938;2023-03-16T10:38:38;10.23;;;7.60;;
8490;SDS011;4282;49.986;7.938;2023-03-16T10:41:25;9.80;;;6.07;;
8490;SDS011;4282;49.986;7.938;2023-03-16T10:43:56;9.40;;;6.37;;
8490;SDS011;4282;49.986;7.938;2023-03-16T10:46:34;9.90;;;6.37;;
8490;SDS011;4282;49.986;7.938;2023-03-16T10:49:03;9.57;;;8.37;;
8490;SDS011;4282;49.986;7.938;2023-03-16T10:51:34;11.23;;;9.10;;
8490;SDS011;4282;49.986;7.938;2023-03-16T10:54:12;10.80;;;7.17;;
8490;SDS011;4282;49.986;7.938;2023-03-16T10:56:43;11.00;;;8.00;;
8490;SDS011;4282;49.986;7.938;2023-03-16T10:59:15;11.13;;;8.90;;
8490;SDS011;4282;49.986;7.938;2023-03-16T11:01:56;10.17;;;8.63;;
8490;SDS011;4282;49.986;7.938;2023-03-16T11:04:24;9.90;;;7.73;;
8490;SDS011;4282;49.986;7.938;2023-03-16T11:06:58;10.50;;;7.37;;
8490;SDS011;4282;49.986;7.938;2023-03-16T11:09:32;9.63;;;6.90;;
8490;SDS011;4282;49.986;7.938;2023-03-16T11:12:11;10.20;;;7.33;;
8490;SDS011;4282;49.986;7.938;2023-03-16T11:14:44;10.63;;;8.00;;
8490;SDS011;4282;49.986;7.938;2023-03-16T11:17:13;10.37;;;7.40;;
8490;SDS011;4282;49.986;7.938;2023-03-16T11:19:46;10.23;;;7.00;;
8490;SDS011;4282;49.986;7.938;2023-03-16T11:22:18;11.50;;;7.17;;
8490;SDS011;4282;49.986;7.938;2023-03-16T11:24:52;8.20;;;6.00;;
8490;SDS011;4282;49.986;7.938;2023-03-16T11:27:25;11.10;;;7.90;;
8490;SDS011;4282;49.986;7.938;2023-03-16T11:30:02;12.60;;;7.73;;
8490;SDS011;4282;49.986;7.938;2023-03-16T11:32:35;10.30;;;7.00;;
8490;SDS011;4282;49.986;7.938;2023-03-16T11:35:11;8.60;;;6.90;;
8490;SDS011;4282;49.986;7.938;2023-03-16T11:37:44;7.27;;;5.80;;
8490;SDS011;4282;49.986;7.938;2023-03-16T11:40:23;6.57;;;4.70;;
8490;SDS011;4282;49.986;7.938;2023-03-16T11:42:58;8.40;;;5.40;;
8490;SDS011;4282;49.986;7.938;2023-03-16T11:45:34;8.63;;;6.70;;
8490;SDS011;4282;49.986;7.938;2023-03-16T11:50:52;7.03;;;4.97;;
8490;SDS011;4282;49.986;7.938;2023-03-16T11:53:30;11.27;;;7.43;;
8490;SDS011;4282;49.986;7.938;2023-03-16T11:56:08;11.77;;;7.60;;
8490;SDS011;4282;49.986;7.938;2023-03-16T11:58:49;9.63;;;7.00;;
8490;SDS011;4282;49.986;7.938;2023-03-16T12:01:23;11.03;;;8.33;;
8490;SDS011;4282;49.986;7.938;2023-03-16T12:04:12;8.77;;;7.87;;
8490;SDS011;4282;49.986;7.938;2023-03-16T12:09:49;10.50;;;7.97;;
8490;SDS011;4282;49.986;7.938;2023-03-16T12:12:36;9.93;;;6.73;;
8490;SDS011;4282;49.986;7.938;2023-03-16T12:17:58;10.17;;;7.77;;
8490;SDS011;4282;49.986;7.938;2023-03-16T12:20:30;10.73;;;8.20;;
8490;SDS011;4282;49.986;7.938;2023-03-16T12:23:02;9.73;;;7.97;;
8490;SDS011;4282;49.986;7.938;2023-03-16T12:25:33;8.73;;;6.90;;
8490;SDS011;4282;49.986;7.938;2023-03-16T12:28:09;11.83;;;6.93;;
8490;SDS011;4282;49.986;7.938;2023-03-16T12:30:44;11.87;;;8.80;;
8490;SDS011;4282;49.986;7.938;2023-03-16T12:33:17;5.10;;;4.13;;
8490;SDS011;4282;49.986;7.938;2023-03-16T12:35:50;7.93;;;5.97;;
8490;SDS011;4282;49.986;7.938;2023-03-16T12:38:30;9.30;;;6.20;;
8490;SDS011;4282;49.986;7.938;2023-03-16T12:41:14;9.13;;;5.83;;
8490;SDS011;4282;49.986;7.938;2023-03-16T12:43:53;6.23;;;5.00;;
8490;SDS011;4282;49.986;7.938;2023-03-16T12:46:29;8.37;;;6.33;;
8490;SDS011;4282;49.986;7.938;2023-03-16T12:49:01;7.57;;;5.37;;
8490;SDS011;4282;49.986;7.938;2023-03-16T12:51:32;7.53;;;4.50;;
8490;SDS011;4282;49.986;7.938;2023-03-16T12:54:01;7.20;;;5.40;;
8490;SDS011;4282;49.986;7.938;2023-03-16T12:56:32;5.37;;;4.27;;
8490;SDS011;4282;49.986;7.938;2023-03-16T12:59:05;7.47;;;5.40;;
8490;SDS011;4282;49.986;7.938;2023-03-16T13:01:38;8.10;;;5.90;;
8490;SDS011;4282;49.986;7.938;2023-03-16T13:04:10;8.83;;;6.23;;
8490;SDS011;4282;49.986;7.938;2023-03-16T13:06:41;3.97;;;3.53;;
8490;SDS011;4282;49.986;7.938;2023-03-16T13:09:12;4.63;;;3.20;;
8490;SDS011;4282;49.986;7.938;2023-03-16T13:11:46;4.80;;;4.10;;
8490;SDS011;4282;49.986;7.938;2023-03-16T13:14:34;4.53;;;3.63;;
8490;SDS011;4282;49.986;7.938;2023-03-16T13:17:05;6.97;;;4.73;;
8490;SDS011;4282;49.986;7.938;2023-03-16T13:20:00;3.47;;;2.53;;
8490;SDS011;4282;49.986;7.938;2023-03-16T13:22:42;2.03;;;1.77;;
8490;SDS011;4282;49.986;7.938;2023-03-16T13:25:16;8.90;;;4.37;;
8490;SDS011;4282;49.986;7.938;2023-03-16T13:27:47;6.33;;;2.30;;
8490;SDS011;4282;49.986;7.938;2023-03-16T13:30:21;5.87;;;4.20;;
8490;SDS011;4282;49.986;7.938;2023-03-16T13:33:11;6.73;;;3.60;;
8490;SDS011;4282;49.986;7.938;2023-03-16T13:35:44;5.60;;;3.37;;
8490;SDS011;4282;49.986;7.938;2023-03-16T13:38:13;5.60;;;3.20;;
8490;SDS011;4282;49.986;7.938;2023-03-16T13:40:46;4.07;;;2.17;;
8490;SDS011;4282;49.986;7.938;2023-03-16T13:43:16;6.93;;;3.13;;
8490;SDS011;4282;49.986;7.938;2023-03-16T13:45:48;3.20;;;2.60;;
8490;SDS011;4282;49.986;7.938;2023-03-16T13:48:17;8.00;;;3.17;;
8490;SDS011;4282;49.986;7.938;2023-03-16T13:50:50;3.37;;;2.50;;
8490;SDS011;4282;49.986;7.938;2023-03-16T13:53:20;4.13;;;3.10;;
8490;SDS011;4282;49.986;7.938;2023-03-16T13:55:50;2.90;;;2.33;;
8490;SDS011;4282;49.986;7.938;2023-03-16T13:58:21;3.03;;;2.47;;
8490;SDS011;4282;49.986;7.938;2023-03-16T14:00:56;5.90;;;3.33;;
8490;SDS011;4282;49.986;7.938;2023-03-16T14:03:29;4.03;;;2.83;;
8490;SDS011;4282;49.986;7.938;2023-03-16T14:06:00;6.17;;;2.53;;
8490;SDS011;4282;49.986;7.938;2023-03-16T14:08:28;2.87;;;2.20;;
8490;SDS011;4282;49.986;7.938;2023-03-16T14:10:58;3.57;;;2.90;;
8490;SDS011;4282;49.986;7.938;2023-03-16T14:13:30;4.87;;;3.03;;
8490;SDS011;4282;49.986;7.938;2023-03-16T14:16:05;3.20;;;2.40;;
8490;SDS011;4282;49.986;7.938;2023-03-16T14:18:39;4.80;;;3.13;;
8490;SDS011;4282;49.986;7.938;2023-03-16T14:21:09;4.87;;;3.17;;
8490;SDS011;4282;49.986;7.938;2023-03-16T14:23:41;3.70;;;2.83;;
8490;SDS011;4282;49.986;7.938;2023-03-16T14:26:12;2.53;;;2.33;;
8490;SDS011;4282;49.986;7.938;2023-03-16T14:30:14;4.97;;;2.47;;
8490;SDS011;4282;49.986;7.938;2023-03-16T14:32:52;3.73;;;2.70;;
8490;SDS011;4282;49.986;7.938;2023-03-16T14:35:24;1.97;;;1.63;;
8490;SDS011;4282;49.986;7.938;2023-03-16T14:37:54;3.20;;;2.70;;
8490;SDS011;4282;49.986;7.938;2023-03-16T14:40:24;2.63;;;2.03;;
8490;SDS011;4282;49.986;7.938;2023-03-16T14:42:55;4.10;;;2.50;;
8490;SDS011;4282;49.986;7.938;2023-03-16T14:45:30;7.07;;;2.30;;
8490;SDS011;4282;49.986;7.938;2023-03-16T14:48:01;2.40;;;1.90;;
8490;SDS011;4282;49.986;7.938;2023-03-16T14:50:31;3.30;;;2.30;;
8490;SDS011;4282;49.986;7.938;2023-03-16T14:53:01;4.30;;;2.37;;
8490;SDS011;4282;49.986;7.938;2023-03-16T14:55:30;4.97;;;3.40;;
8490;SDS011;4282;49.986;7.938;2023-03-16T14:58:00;3.60;;;2.47;;
8490;SDS011;4282;49.986;7.938;2023-03-16T15:00:31;3.37;;;2.60;;
8490;SDS011;4282;49.986;7.938;2023-03-16T15:03:00;4.23;;;2.60;;
8490;SDS011;4282;49.986;7.938;2023-03-16T15:05:32;5.63;;;3.63;;
8490;SDS011;4282;49.986;7.938;2023-03-16T15:08:03;4.13;;;3.10;;
8490;SDS011;4282;49.986;7.938;2023-03-16T15:10:33;5.67;;;4.00;;
8490;SDS011;4282;49.986;7.938;2023-03-16T15:13:06;3.73;;;2.80;;
8490;SDS011;4282;49.986;7.938;2023-03-16T15:15:51;3.03;;;2.47;;
8490;SDS011;4282;49.986;7.938;2023-03-16T15:18:19;3.63;;;2.43;;
8490;SDS011;4282;49.986;7.938;2023-03-16T15:20:47;5.13;;;3.90;;
8490;SDS011;4282;49.986;7.938;2023-03-16T15:23:17;2.97;;;2.40;;
8490;SDS011;4282;49.986;7.938;2023-03-16T15:25:46;4.23;;;2.93;;
8490;SDS011;4282;49.986;7.938;2023-03-16T15:28:18;5.17;;;3.53;;
8490;SDS011;4282;49.986;7.938;2023-03-16T15:30:48;4.67;;;3.60;;
8490;SDS011;4282;49.986;7.938;2023-03-16T15:33:20;5.87;;;4.63;;
8490;SDS011;4282;49.986;7.938;2023-03-16T15:35:49;5.20;;;3.40;;
8490;SDS011;4282;49.986;7.938;2023-03-16T15:38:20;3.37;;;2.93;;
8490;SDS011;4282;49.986;7.938;2023-03-16T15:40:50;3.83;;;2.87;;
8490;SDS011;4282;49.986;7.938;2023-03-16T15:43:19;5.40;;;3.90;;
8490;SDS011;4282;49.986;7.938;2023-03-16T15:45:52;4.50;;;3.50;;
8490;SDS011;4282;49.986;7.938;2023-03-16T15:48:20;4.23;;;2.50;;